Time;durP1;ratioP1;P1;durP2;ratioP2;P2;SDS_P1;SDS_P2;PMS_P1;PMS_P2;Temp;Humidity;BMP_temperature;BMP_pressure;BME280_temperature;BME280_humidity;BME280_pressure;Samples;Min_cycle;Max_cycle;Signal;HPM_P1;HPM_P2
2023/07/26 00:03:58;;;;;;;9.98;4.82;;;;;;;13.59;100.00;100913.31;5114360;28;20522;-75
2023/07/26 00:09:44;;;;;;;7.43;4.60;;;;;;;13.61;100.00;100919.28;5114286;28;20104;-75
2023/07/26 00:15:31;;;;;;;9.02;4.95;;;;;;;13.66;100.00;100923.94;5114390;28;20560;-75
2023/07/26 00:17:56;;;;;;;6.15;4.90;;;;;;;13.64;100.00;100921.50;5094906;28;20044;-76
2023/07/26 00:27:05;;;;;;;5.55;4.60;;;;;;;13.57;100.00;100913.53;5114194;28;20055;-78
2023/07/26 00:29:31;;;;;;;5.28;4.38;;;;;;;13.54;100.00;100913.16;5095742;28;20433;-77
2023/07/26 00:35:20;;;;;;;5.50;4.60;;;;;;;13.44;100.00;100908.38;5114114;28;20034;-78
2023/07/26 00:41:07;;;;;;;6.10;4.78;;;;;;;13.28;100.00;100896.44;5114377;28;20046;-80
2023/07/26 00:43:33;;;;;;;6.13;4.43;;;;;;;13.27;100.00;100904.72;5094856;28;20028;-79
2023/07/26 00:49:20;;;;;;;7.93;4.63;;;;;;;13.10;100.00;100901.03;5113164;28;20153;-78
2023/07/26 00:51:45;;;;;;;5.43;4.90;;;;;;;13.02;100.00;100902.19;5113682;28;20477;-77
2023/07/26 00:54:11;;;;;;;6.97;5.18;;;;;;;12.97;100.00;100902.03;5094693;28;20076;-77
2023/07/26 00:59:58;;;;;;;5.63;4.70;;;;;;;12.91;100.00;100898.41;5114180;28;20046;-77
2023/07/26 01:02:24;;;;;;;6.60;5.22;;;;;;;12.91;100.00;100908.31;5094721;28;20399;-77
2023/07/26 01:08:17;;;;;;;6.20;5.45;;;;;;;12.82;100.00;100904.31;5113621;28;20502;-77
2023/07/26 01:14:13;;;;;;;6.05;5.30;;;;;;;12.69;100.00;100897.25;5113375;28;20092;-76
2023/07/26 01:20:00;;;;;;;5.55;4.82;;;;;;;12.74;100.00;100915.38;5113717;28;20421;-77
2023/07/26 01:25:47;;;;;;;6.40;5.30;;;;;;;12.71;100.00;100898.66;5113309;28;20450;-77
2023/07/26 01:28:12;;;;;;;6.30;5.30;;;;;;;12.78;100.00;100905.81;5113079;28;20027;-77
2023/07/26 01:34:01;;;;;;;7.75;5.40;;;;;;;12.75;100.00;100906.28;5113185;28;20047;-77
2023/07/26 01:36:29;;;;;;;7.63;5.57;;;;;;;12.74;100.00;100901.97;5094064;28;20032;-77
2023/07/26 01:38:57;;;;;;;7.25;5.82;;;;;;;12.75;100.00;100904.41;5094570;28;20058;-77
2023/07/26 01:44:44;;;;;;;9.15;5.65;;;;;;;12.90;100.00;100896.75;5113557;28;20134;-75
2023/07/26 01:50:30;;;;;;;7.35;6.10;;;;;;;12.94;100.00;100907.84;5112726;28;20161;-76
2023/07/26 01:56:17;;;;;;;9.80;5.57;;;;;;;12.89;100.00;100902.34;5112717;28;20288;-76
2023/07/26 01:58:42;;;;;;;6.50;5.57;;;;;;;12.78;100.00;100903.97;5112169;28;20384;-77
2023/07/26 02:01:07;;;;;;;6.53;5.28;;;;;;;12.76;100.00;100902.53;5111623;28;20289;-76
2023/07/26 02:06:54;;;;;;;8.57;5.68;;;;;;;12.69;100.00;100906.13;5111952;28;20184;-78
2023/07/26 02:09:20;;;;;;;8.07;5.33;;;;;;;12.76;100.00;100906.06;5094228;28;20519;-78
2023/07/26 02:11:45;;;;;;;10.25;5.32;;;;;;;12.83;100.00;100906.78;5112277;28;20277;-79
2023/07/26 02:17:32;;;;;;;11.25;5.45;;;;;;;12.80;100.00;100906.41;5112267;28;20043;-78
2023/07/26 02:19:58;;;;;;;6.18;5.40;;;;;;;12.54;100.00;100905.69;5093410;28;20040;-79
2023/07/26 02:25:45;;;;;;;7.57;5.93;;;;;;;12.19;100.00;100904.69;5112440;28;20268;-79
2023/07/26 02:28:10;;;;;;;7.65;5.57;;;;;;;12.08;100.00;100906.22;5093935;28;20027;-79
2023/07/26 02:37:37;;;;;;;6.68;5.72;;;;;;;11.96;100.00;100908.81;5112270;28;20047;-79
2023/07/26 02:40:02;;;;;;;;;;;;;;;11.96;100.00;100899.97;5094278;28;20032;-81
2023/07/26 02:42:28;;;;;;;7.90;6.57;;;;;;;11.92;100.00;100899.59;5112141;28;19915;-80
2023/07/26 02:48:15;;;;;;;10.70;6.53;;;;;;;11.83;100.00;100890.19;5112200;28;20127;-81
2023/07/26 02:54:02;;;;;;;8.20;6.35;;;;;;;11.89;100.00;100892.00;5112329;28;20058;-80
2023/07/26 02:56:27;;;;;;;9.90;5.90;;;;;;;11.90;100.00;100904.34;5111067;28;20450;-83
2023/07/26 03:02:14;;;;;;;6.72;4.90;;;;;;;12.03;100.00;100914.09;5111919;28;20280;-83
2023/07/26 03:04:40;;;;;;;9.60;6.13;;;;;;;11.89;100.00;100915.28;5111797;28;20468;-85
2023/07/26 03:07:05;;;;;;;9.80;6.65;;;;;;;11.86;100.00;100926.44;5111917;28;20372;-83
2023/07/26 03:12:54;;;;;;;10.70;5.78;;;;;;;11.88;100.00;100919.84;5115998;28;20589;-81
2023/07/26 03:15:19;;;;;;;8.43;5.75;;;;;;;11.69;100.00;100926.16;5115373;28;20040;-80
2023/07/26 03:21:06;;;;;;;8.25;6.07;;;;;;;11.49;100.00;100910.22;5115399;28;20759;-80
2023/07/26 03:23:31;;;;;;;8.20;6.28;;;;;;;11.44;100.00;100918.91;5115054;28;20028;-79
2023/07/26 03:25:57;;;;;;;8.93;6.50;;;;;;;11.34;100.00;100907.88;5095869;28;20411;-77
2023/07/26 03:31:44;;;;;;;8.15;6.40;;;;;;;11.11;100.00;100904.94;5113567;28;20506;-81
2023/07/26 03:37:32;;;;;;;11.10;6.78;;;;;;;11.01;100.00;100918.81;5115579;28;20042;-81
2023/07/26 03:39:57;;;;;;;8.70;7.25;;;;;;;10.88;100.00;100912.69;5114231;28;20035;-80
2023/07/26 03:42:22;;;;;;;10.90;7.03;;;;;;;10.81;100.00;100905.53;5115513;28;20028;-83
2023/07/26 03:44:47;;;;;;;8.15;6.53;;;;;;;10.81;100.00;100918.91;5113794;28;20066;-82
2023/07/26 03:50:34;;;;;;;7.72;6.72;;;;;;;10.76;100.00;100921.41;5110556;28;20830;-83
2023/07/26 03:56:21;;;;;;;10.15;6.35;;;;;;;10.69;100.00;100923.28;5115160;28;20552;-82
2023/07/26 04:02:08;;;;;;;9.88;7.20;;;;;;;10.54;100.00;100918.22;5115260;28;20078;-81
2023/07/26 04:04:35;;;;;;;9.60;7.03;;;;;;;10.59;100.00;100914.91;5114512;28;20483;-79
2023/07/26 04:10:22;;;;;;;11.20;7.53;;;;;;;10.55;100.00;100919.03;5114277;28;20035;-79
2023/07/26 04:16:27;;;;;;;10.95;7.35;;;;;;;10.59;100.00;100909.53;5114439;28;20092;-80
2023/07/26 04:18:53;;;;;;;10.80;7.60;;;;;;;10.58;100.00;100907.09;5113440;28;20023;-79
2023/07/26 04:21:18;;;;;;;11.57;7.78;;;;;;;10.60;100.00;100908.50;5113879;28;20055;-80
2023/07/26 04:27:05;;;;;;;9.80;7.45;;;;;;;10.61;100.00;100912.00;5114126;28;20047;-80
2023/07/26 04:29:30;;;;;;;11.85;7.95;;;;;;;10.63;100.00;100917.97;5113902;28;20116;-80
2023/07/26 04:31:56;;;;;;;10.43;7.57;;;;;;;10.75;100.00;100916.28;5095089;28;20066;-80
2023/07/26 04:34:21;;;;;;;8.70;7.05;;;;;;;10.83;100.00;100913.34;5113922;28;20296;-78
2023/07/26 04:40:08;;;;;;;11.82;7.13;;;;;;;11.01;100.00;100915.31;5114216;28;20051;-81
2023/07/26 04:45:55;;;;;;;11.18;7.65;;;;;;;11.17;100.00;100914.78;5113775;28;20402;-78
2023/07/26 04:51:43;;;;;;;10.43;7.45;;;;;;;11.31;100.00;100911.00;5113758;28;20275;-81
2023/07/26 04:54:08;;;;;;;10.10;8.30;;;;;;;11.33;100.00;100914.28;5112826;28;20127;-82
2023/07/26 04:59:55;;;;;;;9.10;7.60;;;;;;;11.48;100.00;100919.31;5112797;28;20277;-81
2023/07/26 05:05:48;;;;;;;12.27;8.13;;;;;;;11.71;100.00;100910.66;5113602;28;20050;-81
2023/07/26 05:15:12;;;;;;;11.65;8.02;;;;;;;12.93;100.00;100916.94;5113482;28;20086;-79
2023/07/26 05:17:37;;;;;;;8.88;7.97;;;;;;;13.38;100.00;100919.22;5113092;28;20124;-79
2023/07/26 05:20:03;;;;;;;10.63;7.27;;;;;;;13.69;100.00;100921.63;5094416;28;20399;-78
2023/07/26 05:22:28;;;;;;;10.85;7.13;;;;;;;14.05;100.00;100920.56;5094652;28;20314;-78
2023/07/26 05:28:15;;;;;;;9.27;6.72;;;;;;;14.70;100.00;100916.84;5113353;28;20046;-78
2023/07/26 05:30:41;;;;;;;8.80;7.00;;;;;;;15.02;100.00;100914.47;5094053;28;20091;-78
2023/07/26 05:36:28;;;;;;;8.90;6.82;;;;;;;15.76;100.00;100918.75;5113180;28;20109;-76
2023/07/26 05:38:53;;;;;;;9.50;7.05;;;;;;;16.10;100.00;100916.00;5093781;28;20493;-77
2023/07/26 05:41:19;;;;;;;9.60;6.00;;;;;;;16.45;100.00;100925.63;5094605;28;20453;-78
2023/07/26 05:43:44;;;;;;;8.20;6.73;;;;;;;16.93;100.00;100920.28;5111917;28;20286;-80
2023/07/26 05:46:09;;;;;;;10.15;6.13;;;;;;;17.42;100.00;100927.53;5094451;28;20269;-81
2023/07/26 05:48:35;;;;;;;8.80;6.00;;;;;;;17.95;100.00;100926.63;5112588;28;20031;-80
2023/07/26 05:51:00;;;;;;;10.27;6.30;;;;;;;18.30;100.00;100926.00;5093850;28;20093;-79
2023/07/26 05:53:25;;;;;;;7.33;6.40;;;;;;;18.83;100.00;100924.88;5112550;28;20759;-80
2023/07/26 05:59:12;;;;;;;8.38;6.45;;;;;;;17.78;100.00;100934.88;5112959;28;20308;-81
2023/07/26 06:01:37;;;;;;;8.23;6.82;;;;;;;17.48;100.00;100929.19;5093655;28;20032;-80
2023/07/26 06:04:03;;;;;;;11.70;6.93;;;;;;;17.45;100.00;100943.22;5093986;28;20042;-79
2023/07/26 06:06:29;;;;;;;8.80;6.72;;;;;;;17.51;100.00;100934.91;5094172;28;20031;-82
2023/07/26 06:08:54;;;;;;;10.38;7.43;;;;;;;17.61;100.00;100945.78;5093443;28;20035;-83
2023/07/26 06:11:19;;;;;;;13.82;7.40;;;;;;;17.51;100.00;100948.41;5093949;28;20115;-84
2023/07/26 06:13:45;;;;;;;9.70;7.17;;;;;;;17.23;100.00;100946.00;5111567;28;20028;-81
2023/07/26 06:16:10;;;;;;;13.43;8.32;;;;;;;16.94;100.00;100961.63;5112024;28;20274;-80
2023/07/26 06:18:35;;;;;;;9.60;7.40;;;;;;;16.68;100.00;100960.50;5093841;28;20020;-80
2023/07/26 06:21:00;;;;;;;13.95;8.65;;;;;;;16.41;100.00;100960.41;5111799;28;20036;-80
2023/07/26 06:26:48;;;;;;;11.02;7.90;;;;;;;16.17;100.00;100972.47;5112541;28;20069;-79
2023/07/26 06:32:35;;;;;;;15.35;9.18;;;;;;;15.87;100.00;100976.34;5112462;28;20084;-81
2023/07/26 06:38:22;;;;;;;13.00;8.98;;;;;;;15.58;100.00;100977.44;5112231;28;20292;-81
2023/07/26 06:47:30;;;;;;;15.00;9.07;;;;;;;14.65;100.00;100994.78;5115177;28;20460;-80
2023/07/26 06:53:18;;;;;;;13.35;9.65;;;;;;;14.41;100.00;100988.59;5115938;28;20304;-80
2023/07/26 06:59:11;;;;;;;16.75;10.05;;;;;;;14.24;100.00;100999.25;5115648;28;20057;-81
2023/07/26 07:04:57;;;;;;;16.23;10.57;;;;;;;14.12;100.00;100999.22;5115907;28;20070;-77
2023/07/26 07:10:45;;;;;;;16.33;10.32;;;;;;;13.95;100.00;100999.13;5115659;28;20269;-78
2023/07/26 08:08:56;;;;;;;13.73;9.45;;;;;;;23.44;100.00;101036.03;5053970;28;20056;-80
2023/07/26 08:14:47;;;;;;;10.10;8.48;;;;;;;26.36;88.19;101038.94;5053905;28;20283;-82
2023/07/26 08:20:36;;;;;;;11.95;7.25;;;;;;;27.95;73.67;101048.44;5054669;28;20048;-82
2023/07/26 08:26:23;;;;;;;9.75;7.15;;;;;;;28.80;67.92;101047.72;5053636;28;20094;-80
2023/07/26 08:32:10;;;;;;;8.07;7.15;;;;;;;29.54;60.95;101050.69;5053553;28;20043;-81
2023/07/26 08:37:56;;;;;;;9.13;6.85;;;;;;;29.88;61.20;101052.31;5053154;28;20132;-81
2023/07/26 08:43:45;;;;;;;7.65;6.82;;;;;;;29.74;58.13;101054.53;5052963;28;20427;-81
2023/07/26 08:52:58;;;;;;;9.50;7.20;;;;;;;30.34;53.37;101039.34;5052970;28;20048;-80
2023/07/26 08:58:45;;;;;;;8.30;5.90;;;;;;;29.56;52.96;101034.59;5052876;28;20052;-81
2023/07/26 09:04:33;;;;;;;8.52;6.40;;;;;;;30.44;51.92;101033.41;5052868;28;20035;-80
2023/07/26 09:10:26;;;;;;;5.95;4.78;;;;;;;31.88;48.97;101034.69;5052070;28;20051;-81
2023/07/26 09:16:13;;;;;;;8.82;5.40;;;;;;;32.82;41.64;101020.09;5052759;28;20043;-80
2023/07/26 09:22:05;;;;;;;7.40;5.60;;;;;;;26.12;56.55;101028.28;5052691;28;20082;-79
2023/07/26 09:31:14;;;;;;;8.60;7.65;;;;;;;25.23;67.96;101026.28;5052485;28;20051;-80
2023/07/26 09:37:01;;;;;;;12.13;6.60;;;;;;;27.72;56.46;100995.59;5052318;28;20047;-79
2023/07/26 09:42:48;;;;;;;7.00;4.80;;;;;;;25.20;57.82;101018.69;5054449;28;20063;-80
2023/07/26 09:48:36;;;;;;;7.60;4.78;;;;;;;23.00;64.89;101006.34;5052412;28;20040;-81
2023/07/26 09:54:31;;;;;;;5.72;4.47;;;;;;;21.81;69.32;101013.28;5052448;28;20522;-83
2023/07/26 10:00:19;;;;;;;5.50;3.80;;;;;;;21.26;69.28;101014.47;5051788;28;20044;-79
2023/07/26 10:06:08;;;;;;;5.95;3.20;;;;;;;22.80;66.73;101005.47;5052146;28;20099;-80
2023/07/26 10:11:57;;;;;;;4.63;2.97;;;;;;;22.17;63.85;101010.25;5052099;28;20447;-79
2023/07/26 10:17:47;;;;;;;6.88;3.40;;;;;;;21.56;65.49;101025.16;5051742;28;20036;-78
2023/07/26 10:23:34;;;;;;;6.40;3.90;;;;;;;21.30;69.10;101019.06;5051835;28;20114;-79
2023/07/26 10:29:21;;;;;;;7.32;4.32;;;;;;;22.17;67.22;101011.06;5051569;28;20035;-83
2023/07/26 10:35:09;;;;;;;8.07;4.72;;;;;;;22.93;66.95;100995.00;5051764;28;20128;-79
2023/07/26 10:40:56;;;;;;;7.72;4.65;;;;;;;23.66;67.16;100998.03;5051770;28;20047;-78
2023/07/26 10:47:03;;;;;;;6.82;4.18;;;;;;;22.92;66.20;100999.66;5051635;28;20044;-77
2023/07/26 10:52:50;;;;;;;8.57;4.97;;;;;;;21.54;71.19;101002.88;5051606;28;20438;-78
2023/07/26 10:58:49;;;;;;;7.53;5.05;;;;;;;21.57;74.02;101002.31;5051678;28;20080;-78
2023/07/26 11:04:43;;;;;;;7.55;5.28;;;;;;;22.37;72.73;100992.91;5052101;28;20070;-78
2023/07/26 11:10:51;;;;;;;8.73;4.65;;;;;;;22.58;73.04;100997.03;5052086;28;20127;-78
2023/07/26 11:16:38;;;;;;;10.73;5.78;;;;;;;21.48;79.14;100992.31;5051677;28;20056;-78
2023/07/26 11:19:03;;;;;;;6.67;5.00;;;;;;;21.58;76.82;100987.59;5051311;28;20037;-79
2023/07/26 11:24:50;;;;;;;7.45;4.55;;;;;;;21.48;70.59;100986.88;5051501;28;20274;-78
2023/07/26 11:30:41;;;;;;;6.85;3.90;;;;;;;20.76;69.98;101007.34;5051199;28;20634;-78
2023/07/26 11:36:29;;;;;;;7.30;3.95;;;;;;;21.63;69.60;101006.59;5054955;28;20064;-78
2023/07/26 11:42:16;;;;;;;5.80;3.70;;;;;;;25.39;53.83;101016.59;5054868;28;20607;-79
2023/07/26 11:48:06;;;;;;;7.03;3.60;;;;;;;25.97;52.23;101012.22;5054457;28;20112;-77
2023/07/26 11:57:30;;;;;;;6.00;3.90;;;;;;;21.71;61.72;101024.25;5054149;28;20036;-77
2023/07/26 11:59:58;;;;;;;5.68;3.70;;;;;;;21.99;61.06;101024.59;5060860;28;20052;-78
2023/07/26 12:05:49;;;;;;;6.63;3.25;;;;;;;22.47;59.20;101014.59;5054165;28;20401;-77
2023/07/26 12:11:38;;;;;;;6.68;3.60;;;;;;;22.54;61.01;101015.84;5054421;28;20131;-78
2023/07/26 12:17:25;;;;;;;5.07;3.40;;;;;;;22.30;59.94;101025.94;5054276;28;20671;-77
2023/07/26 12:23:12;;;;;;;5.00;2.97;;;;;;;22.58;57.72;101031.66;5060572;28;20273;-77
2023/07/26 12:29:00;;;;;;;3.92;3.00;;;;;;;23.47;58.08;101035.44;5053724;28;20298;-77
2023/07/26 12:34:47;;;;;;;4.90;3.03;;;;;;;23.05;56.56;101017.19;5053851;28;20369;-77
2023/07/26 12:40:34;;;;;;;5.10;2.70;;;;;;;22.45;57.35;101033.97;5053748;28;20321;-76
2023/07/26 12:46:22;;;;;;;6.38;3.28;;;;;;;22.30;60.79;101025.16;5053813;28;20044;-77
2023/07/26 12:48:47;;;;;;;4.95;2.88;;;;;;;22.60;60.48;101024.00;5060311;28;20041;-77
2023/07/26 12:54:34;;;;;;;5.28;2.83;;;;;;;22.74;54.22;101031.19;5060034;28;20115;-76
2023/07/26 13:00:22;;;;;;;4.90;3.28;;;;;;;23.08;54.54;101025.59;5053219;28;20419;-77
2023/07/26 13:06:09;;;;;;;6.10;3.40;;;;;;;22.25;58.21;101028.69;5057007;28;20377;-78
2023/07/26 13:11:56;;;;;;;6.82;3.63;;;;;;;23.42;57.09;101028.16;5053417;28;20071;-77
2023/07/26 13:17:44;;;;;;;7.05;3.97;;;;;;;21.65;61.01;101037.06;5052794;28;20062;-76
2023/07/26 13:23:31;;;;;;;7.00;3.85;;;;;;;20.95;66.51;101038.25;5053227;28;20048;-77
2023/07/26 13:29:18;;;;;;;8.88;3.60;;;;;;;21.01;63.58;101042.59;5053014;28;20079;-78
2023/07/26 13:35:06;;;;;;;6.47;3.15;;;;;;;21.48;60.16;101030.41;5052682;28;20282;-79
2023/07/26 13:40:53;;;;;;;6.60;2.97;;;;;;;20.67;64.71;101042.44;5052990;28;20083;-77
2023/07/26 13:46:40;;;;;;;5.72;3.55;;;;;;;20.62;66.15;101045.19;5053171;28;20442;-77
2023/07/26 13:52:27;;;;;;;6.10;4.00;;;;;;;20.80;64.98;101039.13;5052858;28;20079;-78
2023/07/26 13:58:14;;;;;;;6.47;3.85;;;;;;;21.03;64.23;101051.28;5052279;28;20353;-77
2023/07/26 14:04:02;;;;;;;6.00;4.00;;;;;;;20.77;67.50;101055.16;5052325;28;20277;-76
2023/07/26 14:09:49;;;;;;;6.82;3.50;;;;;;;21.39;70.86;101045.69;5052483;28;20056;-76
2023/07/26 14:15:36;;;;;;;4.90;3.55;;;;;;;21.91;63.85;101043.13;5052381;28;20099;-78
2023/07/26 14:21:23;;;;;;;6.50;3.20;;;;;;;22.38;58.37;101041.66;5052050;28;20090;-79
2023/07/26 14:30:32;;;;;;;7.15;3.53;;;;;;;21.38;62.67;101042.16;5052019;28;20105;-76
2023/07/26 14:36:19;;;;;;;4.10;2.60;;;;;;;21.39;63.60;101042.97;5051795;28;20278;-77
2023/07/26 14:42:07;;;;;;;4.68;3.08;;;;;;;21.84;57.02;101048.09;5052071;28;20826;-77
2023/07/26 14:44:32;;;;;;;5.30;2.78;;;;;;;21.74;61.69;101044.66;5053750;28;20036;-76
2023/07/26 14:50:19;;;;;;;6.25;3.20;;;;;;;21.38;61.11;101057.66;5051668;28;20051;-76
2023/07/26 14:56:06;;;;;;;4.20;2.65;;;;;;;21.98;56.97;101033.84;5058591;28;20137;-77
2023/07/26 15:01:53;;;;;;;5.22;2.95;;;;;;;22.17;57.74;101040.22;5051744;28;20059;-76
2023/07/26 15:07:40;;;;;;;6.47;3.00;;;;;;;22.04;55.00;101032.75;5054287;28;20048;-78
2023/07/26 15:13:27;;;;;;;6.40;3.17;;;;;;;21.98;58.05;101026.50;5054903;28;20326;-76
2023/07/26 15:19:14;;;;;;;5.07;3.22;;;;;;;22.18;57.30;101031.78;5054363;28;20130;-77
2023/07/26 15:25:02;;;;;;;5.63;3.10;;;;;;;22.06;55.96;101028.63;5054337;28;20275;-76
2023/07/26 15:30:49;;;;;;;5.68;3.03;;;;;;;21.79;54.82;101020.91;5054609;28;20094;-77
2023/07/26 15:36:36;;;;;;;5.38;3.25;;;;;;;21.87;53.41;101014.03;5054550;28;20075;-77
2023/07/26 15:42:23;;;;;;;4.43;2.65;;;;;;;22.02;54.19;101003.03;5054020;28;20162;-76
2023/07/26 15:51:34;;;;;;;4.95;3.10;;;;;;;22.02;54.03;101005.75;5054422;28;20048;-75
2023/07/26 15:57:21;;;;;;;4.57;2.65;;;;;;;22.14;52.23;101014.38;5054139;28;20036;-76
2023/07/26 16:03:09;;;;;;;8.20;3.30;;;;;;;21.76;51.57;101002.44;5054112;28;20531;-76
2023/07/26 16:08:57;;;;;;;4.57;3.08;;;;;;;22.04;55.30;101002.78;5054260;28;20040;-76
2023/07/26 16:14:45;;;;;;;4.28;2.90;;;;;;;21.94;52.79;101004.44;5053889;28;20048;-76
2023/07/26 16:20:31;;;;;;;4.43;2.80;;;;;;;22.04;53.08;100989.97;5053598;28;20120;-76
2023/07/26 16:26:19;;;;;;;5.78;3.40;;;;;;;22.15;51.28;100993.41;5053923;28;20706;-76
2023/07/26 16:32:06;;;;;;;4.10;2.70;;;;;;;22.04;55.36;100983.72;5053755;28;20596;-76
2023/07/26 16:37:54;;;;;;;4.97;3.03;;;;;;;22.04;53.91;100975.53;5053840;28;20040;-77
2023/07/26 16:43:41;;;;;;;5.18;3.08;;;;;;;21.74;55.79;100974.69;5053604;28;20345;-77
2023/07/26 16:49:29;;;;;;;5.32;3.42;;;;;;;21.69;53.24;100972.00;5055002;28;20047;-76
2023/07/26 16:55:15;;;;;;;4.78;3.20;;;;;;;21.51;53.19;100975.41;5053573;28;20052;-75
2023/07/26 17:01:03;;;;;;;4.20;3.00;;;;;;;21.67;53.18;100982.34;5052823;28;20274;-75
2023/07/26 17:06:50;;;;;;;4.20;3.20;;;;;;;21.76;52.03;100977.94;5053435;28;20091;-76
2023/07/26 17:12:38;;;;;;;6.60;3.03;;;;;;;21.81;53.71;100991.50;5052827;28;20385;-77
2023/07/26 17:18:24;;;;;;;5.25;3.25;;;;;;;21.73;55.38;100983.13;5052739;28;20156;-77
2023/07/26 17:24:11;;;;;;;7.75;3.38;;;;;;;21.70;54.42;100987.25;5052525;28;20694;-77
2023/07/26 17:29:59;;;;;;;4.25;3.20;;;;;;;21.48;54.78;100979.50;5052224;28;20086;-77
2023/07/26 17:35:46;;;;;;;5.43;3.50;;;;;;;21.31;55.96;100987.25;5052497;28;20052;-78
2023/07/26 17:41:33;;;;;;;5.10;3.10;;;;;;;21.20;56.15;100986.47;5052391;28;20400;-76
2023/07/26 17:47:20;;;;;;;5.90;3.53;;;;;;;21.23;58.47;100966.06;5059374;28;20054;-76
2023/07/26 17:53:08;;;;;;;4.93;3.45;;;;;;;21.18;58.63;100968.81;5052562;28;20283;-77
2023/07/26 17:58:55;;;;;;;5.60;3.70;;;;;;;20.68;67.48;100959.81;5052136;28;20036;-75
2023/07/26 18:04:42;;;;;;;5.43;3.58;;;;;;;20.21;68.33;100971.06;5052200;28;20551;-76
2023/07/26 18:10:28;;;;;;;4.25;2.88;;;;;;;19.86;69.50;100971.94;5051838;28;20352;-76
2023/07/26 18:16:17;;;;;;;4.45;3.20;;;;;;;19.70;76.38;100966.53;5052373;28;20060;-74
2023/07/26 18:22:04;;;;;;;7.85;3.72;;;;;;;19.72;72.67;100972.50;5051805;28;20067;-78
2023/07/26 18:27:53;;;;;;;7.18;3.97;;;;;;;19.52;85.92;100968.91;5051878;28;20128;-78
2023/07/26 18:33:43;;;;;;;5.65;3.95;;;;;;;19.16;90.97;100968.88;5051419;28;20080;-78
2023/07/26 18:39:31;;;;;;;4.50;3.28;;;;;;;19.12;92.14;100967.78;5051888;28;20095;-79
2023/07/26 18:45:19;;;;;;;5.93;3.33;;;;;;;19.03;99.04;100955.81;5055526;28;20278;-78
2023/07/26 18:51:08;;;;;;;7.50;5.00;;;;;;;19.03;100.00;100953.09;5055618;28;20381;-78
2023/07/26 18:56:55;;;;;;;17.55;4.93;;;;;;;18.99;100.00;100957.44;5060469;28;20549;-79
2023/07/26 19:02:42;;;;;;;5.75;3.83;;;;;;;18.96;100.00;100964.22;5055800;28;20104;-78
2023/07/26 19:08:29;;;;;;;5.15;4.05;;;;;;;18.58;100.00;100957.28;5056391;28;20083;-79
2023/07/26 19:14:16;;;;;;;6.88;4.07;;;;;;;18.24;100.00;100960.34;5055445;28;20386;-78
2023/07/26 19:20:04;;;;;;;5.93;4.05;;;;;;;18.04;100.00;100967.53;5055212;28;20063;-79
2023/07/26 19:25:52;;;;;;;5.30;4.35;;;;;;;17.81;100.00;100960.59;5054747;28;20499;-77
2023/07/26 19:31:39;;;;;;;6.25;4.05;;;;;;;17.58;100.00;100962.53;5054745;28;20321;-78
2023/07/26 19:37:25;;;;;;;7.30;4.03;;;;;;;17.49;100.00;100963.25;5054236;28;20283;-78
2023/07/26 19:43:12;;;;;;;6.68;4.00;;;;;;;17.40;100.00;100967.50;5054922;28;20282;-78
2023/07/26 19:52:24;;;;;;;5.60;4.05;;;;;;;17.44;100.00;100971.34;5054729;28;20125;-78
2023/07/26 19:58:11;;;;;;;6.05;4.70;;;;;;;17.40;100.00;100972.91;5054294;28;20080;-78
2023/07/26 20:03:58;;;;;;;7.22;5.10;;;;;;;17.34;100.00;100972.03;5054553;28;20044;-77
2023/07/26 20:09:45;;;;;;;5.38;3.90;;;;;;;17.18;100.00;100962.16;5053957;28;20310;-78
2023/07/26 20:15:32;;;;;;;11.90;4.25;;;;;;;17.19;100.00;100955.69;5060558;28;20039;-76
2023/07/26 20:21:20;;;;;;;5.85;4.20;;;;;;;16.98;100.00;100974.38;5054036;28;20087;-73
2023/07/26 20:27:07;;;;;;;5.35;3.72;;;;;;;16.65;100.00;100967.19;5055231;28;20066;-77
2023/07/26 20:32:54;;;;;;;5.50;4.10;;;;;;;16.47;100.00;100966.66;5054714;28;20044;-75
2023/07/26 20:38:41;;;;;;;5.25;4.07;;;;;;;16.27;100.00;100965.34;5057531;28;20072;-78
2023/07/26 20:44:28;;;;;;;6.40;4.45;;;;;;;16.21;100.00;100960.97;5053328;28;20317;-79
2023/07/26 20:50:15;;;;;;;5.78;4.43;;;;;;;16.11;100.00;100955.41;5054329;28;20095;-78
2023/07/26 20:56:03;;;;;;;6.13;4.13;;;;;;;16.03;100.00;100943.16;5053028;28;20040;-79
2023/07/26 21:01:49;;;;;;;9.05;4.20;;;;;;;16.02;100.00;100935.31;5052841;28;20392;-78
2023/07/26 21:07:36;;;;;;;5.57;4.07;;;;;;;15.96;100.00;100928.22;5057875;28;20361;-78
2023/07/26 21:13:23;;;;;;;7.63;4.22;;;;;;;15.81;100.00;100920.69;5053454;28;20098;-75
2023/07/26 21:19:11;;;;;;;4.88;4.22;;;;;;;15.94;100.00;100911.47;5052937;28;20337;-77
2023/07/26 21:24:57;;;;;;;7.90;4.53;;;;;;;15.98;100.00;100891.03;5052934;28;20268;-78
2023/07/26 21:30:49;;;;;;;6.07;4.30;;;;;;;16.11;100.00;100896.03;5052438;28;20793;-76
2023/07/26 21:36:36;;;;;;;6.22;4.60;;;;;;;16.08;100.00;100888.44;5052711;28;20071;-75
2023/07/26 21:42:22;;;;;;;5.47;3.90;;;;;;;15.87;100.00;100879.25;5052506;28;20569;-77
2023/07/26 21:48:13;;;;;;;7.35;5.07;;;;;;;15.56;100.00;100869.06;5052892;28;20094;-77
2023/07/26 21:54:00;;;;;;;6.53;4.75;;;;;;;15.32;100.00;100861.13;5052162;28;20083;-77
2023/07/26 21:59:47;;;;;;;6.05;4.60;;;;;;;15.43;100.00;100856.75;5051930;28;20302;-77
2023/07/26 22:05:34;;;;;;;5.65;4.47;;;;;;;15.44;100.00;100858.38;5052295;28;20074;-76
2023/07/26 22:11:20;;;;;;;7.18;4.43;;;;;;;15.27;100.00;100844.06;5052164;28;20274;-78
2023/07/26 22:13:46;;;;;;;5.90;4.40;;;;;;;15.26;100.00;100839.75;5050512;28;20037;-78
2023/07/26 22:19:35;;;;;;;9.18;4.35;;;;;;;15.29;100.00;100844.63;5051848;28;20091;-77
2023/07/26 22:25:22;;;;;;;7.75;4.75;;;;;;;15.25;100.00;100836.22;5051742;28;20443;-78
2023/07/26 22:31:09;;;;;;;7.95;5.15;;;;;;;15.25;100.00;100830.84;5052069;28;20087;-77
2023/07/26 22:36:56;;;;;;;12.30;5.95;;;;;;;15.39;100.00;100828.66;5051188;28;20059;-77
2023/07/26 22:39:21;;;;;;;7.97;5.20;;;;;;;15.40;100.00;100825.72;5051316;28;20029;-79
2023/07/26 22:41:47;;;;;;;8.80;4.97;;;;;;;15.40;100.00;100820.31;5058034;28;20117;-77
2023/07/26 22:47:33;;;;;;;7.03;5.45;;;;;;;15.34;100.00;100817.81;5058367;28;20545;-77
2023/07/26 22:53:21;;;;;;;6.72;5.00;;;;;;;15.23;100.00;100806.03;5053698;28;20043;-77
2023/07/26 22:59:09;;;;;;;8.48;5.30;;;;;;;15.23;100.00;100807.91;5051919;28;20124;-78
2023/07/26 23:04:56;;;;;;;9.70;5.68;;;;;;;15.18;100.00;100804.06;5051097;28;20056;-77
2023/07/26 23:20:44;;;;;;;8.63;5.50;;;;;;;15.49;100.00;100799.16;5051075;28;20098;-77
2023/07/26 23:26:31;;;;;;;9.75;5.30;;;;;;;15.66;100.00;100799.97;5051280;28;20079;-78
2023/07/26 23:32:18;;;;;;;9.38;5.95;;;;;;;15.77;100.00;100793.66;5055208;28;20055;-78
2023/07/26 23:34:43;;;;;;;8.48;6.50;;;;;;;15.74;100.00;100785.25;5053543;28;20028;-80
2023/07/26 23:40:32;;;;;;;8.35;5.63;;;;;;;15.81;100.00;100791.25;5054767;28;20321;-78
2023/07/26 23:42:58;;;;;;;10.43;6.45;;;;;;;15.57;100.00;100792.50;5056427;28;20220;-80
2023/07/26 23:48:45;;;;;;;12.25;6.78;;;;;;;14.96;100.00;100783.50;5055007;28;20444;-81
2023/07/26 23:54:33;;;;;;;9.55;7.30;;;;;;;14.47;100.00;100778.66;5055058;28;20051;-81
